Queen Of Cowichan — CZ4990 — position and weather

sailwx.info

Track history (hours):
 
Tides and Currents Weather Stations Pressure Air Temp Water Temp Dewpoint Dewpoint Depression Visibility Wind Speed Wind Dir Waves Ship Positions

Queen Of Cowichan

Last reported at 2014-Sep-23 15:34 UTC. Time now 2014-Sep-23 16:29 UTC.
Position N 49°23' W 123°17'.

Length 139 m; draft 5.5 m.

Type: Passenger vessel. MMSI: 316001251.

Date/timePositionNaut miles runAvg speedWind from/ knotsBaromVisibWave heightAir tempDewpointWater temp
2014-Sep-23 15:34N 49°23' W 123°17'6 6.2
2014-Sep-23 14:33N 49°19' W 123°24'2019.8
2014-Sep-23 13:33N 49°13' W 123°53'3 2.7
2014-Sep-23 12:18N 49°12' W 123°57'0 0.0
2014-Sep-23 06:24N 49°12' W 123°57'1315.7
2014-Sep-23 05:34N 49°17' W 123°39'1614.4
2014-Sep-23 04:28N 49°23' W 123°16'1213.3
2014-Sep-23 03:33N 49°17' W 123°32'1715.1
2014-Sep-23 02:26N 49°12' W 123°57'1011.8
2014-Sep-23 01:34N 49°16' W 123°43'1918.8
2014-Sep-23 00:33N 49°23' W 123°16'6 6.1
2014-Sep-22 23:34N 49°19' W 123°23'2019.9
2014-Sep-22 22:34N 49°14' W 123°52'3 2.8
2014-Sep-22 21:34N 49°12' W 123°56'2019.9
2014-Sep-22 20:34N 49°19' W 123°27'8 8.1
2014-Sep-22 19:33N 49°23' W 123°16'1414.3
2014-Sep-22 18:34N 49°16' W 123°36'1514.7
2014-Sep-22 17:33N 49°12' W 123°57'1110.7
2014-Sep-22 16:33N 49°16' W 123°42'1818.3
2014-Sep-22 15:33N 49°23' W 123°16'7 6.6
2014-Sep-22 14:34N 49°19' W 123°24'2019.9
2014-Sep-22 13:34N 49°13' W 123°54'3 2.8
2014-Sep-22 12:31N 49°12' W 123°57'0 0.0
2014-Sep-22 11:28N 49°12' W 123°57'0 0.0
2014-Sep-22 10:25N 49°12' W 123°57'0 0.0
2014-Sep-22 09:31N 49°12' W 123°57'0 0.0
2014-Sep-22 08:28N 49°12' W 123°57'0 0.0
2014-Sep-22 07:28N 49°12' W 123°57'0 0.0
2014-Sep-22 05:22N 49°12' W 123°57'0 0.0
2014-Sep-22 04:16N 49°12' W 123°57'0 0.0
2014-Sep-22 03:33N 49°12' W 123°57'1716.9
2014-Sep-22 02:33N 49°18' W 123°33'1212.1
2014-Sep-22 01:33N 49°23' W 123°16'9 8.6
2014-Sep-22 00:33N 49°26' W 123°28'8 8.1
2014-Sep-21 23:34N 49°24' W 123°16'5 4.8
2014-Sep-21 22:33N 49°20' W 123°21'2019.8
2014-Sep-21 21:33N 49°14' W 123°50'6 1.3
2014-Sep-21 17:24N 49°12' W 123°57'0 0.0
2014-Sep-21 15:30N 49°12' W 123°57'0 0.0
2014-Sep-21 14:18N 49°12' W 123°57'0 0.0
2014-Sep-21 13:30N 49°12' W 123°57'0 0.0
2014-Sep-21 12:30N 49°12' W 123°57'0 0.0
2014-Sep-21 11:30N 49°12' W 123°57'0 0.0
2014-Sep-21 10:12N 49°12' W 123°57'0 0.0
2014-Sep-21 08:30N 49°12' W 123°57'0 0.0
2014-Sep-21 07:30N 49°12' W 123°57'0 0.0
2014-Sep-21 06:24N 49°12' W 123°57'0 0.0
2014-Sep-21 05:30N 49°12' W 123°57'0 0.0
2014-Sep-21 04:12N 49°12' W 123°57'0 0.0
2014-Sep-21 01:15N 49°12' W 123°57'0 0.0
2014-Sep-21 00:33N 49°12' W 123°57'0 0.0
2014-Sep-20 23:33N 49°12' W 123°57'0 0.0
2014-Sep-20 22:30N 49°12' W 123°57'0 0.0
2014-Sep-20 19:12N 49°12' W 123°57'0 0.0
2014-Sep-20 16:30N 49°12' W 123°57'0 0.0
2014-Sep-20 15:33N 49°12' W 123°57'0 0.0
2014-Sep-20 14:24N 49°12' W 123°57'0 0.0
2014-Sep-20 13:30N 49°12' W 123°57'0 0.0
2014-Sep-20 12:30N 49°12' W 123°57'0 0.0
2014-Sep-20 11:24N 49°12' W 123°57'0 0.0
2014-Sep-20 10:30N 49°12' W 123°57'0 0.0
2014-Sep-20 09:30N 49°12' W 123°57'0 0.0
2014-Sep-20 08:24N 49°12' W 123°57'0 0.0
2014-Sep-20 07:30N 49°12' W 123°57'0 0.0
2014-Sep-20 06:30N 49°12' W 123°57'0 0.0
2014-Sep-20 05:24N 49°12' W 123°57'0 0.0
2014-Sep-20 04:30N 49°12' W 123°57'0 0.0
2014-Sep-20 03:24N 49°12' W 123°57'0 0.0
2014-Sep-20 02:24N 49°12' W 123°57'0 0.0
2014-Sep-20 01:08N 49°12' W 123°57'915.6
2014-Sep-20 00:33N 49°16' W 123°45'1919.2
2014-Sep-19 23:33N 49°23' W 123°18'4 4.3
2014-Sep-19 22:33N 49°25' W 123°23'2 2.5
2014-Sep-19 21:33N 49°25' W 123°20'3 2.7
2014-Sep-19 20:33N 49°23' W 123°17'1818.3
2014-Sep-19 19:33N 49°15' W 123°43'1010.2
2014-Sep-19 18:33N 49°12' W 123°57'0 0.0
2014-Sep-19 17:27N 49°12' W 123°57'0 0.0
2014-Sep-19 16:21N 49°12' W 123°57'0 0.0
2014-Sep-19 15:24N 49°12' W 123°57'0 0.0
2014-Sep-19 13:30N 49°12' W 123°57'0 0.0
2014-Sep-19 12:27N 49°12' W 123°57'0 0.0
2014-Sep-19 11:21N 49°12' W 123°57'0 0.0
2014-Sep-19 10:33N 49°12' W 123°57'0 0.0
2014-Sep-19 09:24N 49°12' W 123°57'0 0.0
2014-Sep-19 08:33N 49°12' W 123°57'0 0.0
2014-Sep-19 07:33N 49°12' W 123°57'0 0.0
2014-Sep-19 06:09N 49°12' W 123°57'0 0.0
2014-Sep-19 05:33N 49°12' W 123°57'0 0.0
2014-Sep-19 04:33N 49°12' W 123°57'0 0.0
2014-Sep-19 03:15N 49°12' W 123°57'0 0.0
2014-Sep-19 00:33N 49°12' W 123°57'0 0.0
2014-Sep-18 23:10N 49°12' W 123°57'6 9.1
2014-Sep-18 22:34N 49°15' W 123°50'1716.5
2014-Sep-18 21:34N 49°19' W 123°26'7 7.0
2014-Sep-18 20:33N 49°23' W 123°16'1 1.0
2014-Sep-18 19:33N 49°23' W 123°17'1414.3
2014-Sep-18 18:33N 49°16' W 123°36'1514.6
2014-Sep-18 17:33N 49°12' W 123°57'1010.3
2014-Sep-18 16:34N 49°16' W 123°43'1918.8
2014-Sep-18 15:34N 49°23' W 123°16'6 6.4
2014-Sep-18 14:34N 49°19' W 123°23'2019.7
2014-Sep-18 13:34N 49°14' W 123°53'4 3.6
2014-Sep-18 12:33N 49°12' W 123°57'0 0.0
2014-Sep-18 11:32N 49°12' W 123°57'0 0.0
2014-Sep-18 07:32N 49°12' W 123°57'0 0.0
2014-Sep-18 06:32N 49°12' W 123°57'1010.3
2014-Sep-18 05:34N 49°16' W 123°44'1919.1
2014-Sep-18 04:34N 49°23' W 123°17'9 8.7
2014-Sep-18 03:33N 49°18' W 123°27'2019.8
2014-Sep-18 02:33N 49°12' W 123°56'6 6.1
2014-Sep-18 01:34N 49°15' W 123°48'1919.5
2014-Sep-18 00:34N 49°21' W 123°20'1 0.5
2014-Sep-17 23:33N 49°21' W 123°20'2019.6
2014-Sep-17 22:33N 49°15' W 123°49'6 6.4
2014-Sep-17 21:33N 49°12' W 123°57'1716.7
2014-Sep-17 20:34N 49°18' W 123°34'1212.2
2014-Sep-17 19:33N 49°23' W 123°16'1212.0
2014-Sep-17 18:33N 49°17' W 123°32'1717.0
2014-Sep-17 17:33N 49°12' W 123°57'1010.2
2014-Sep-17 16:34N 49°16' W 123°43'1918.9
2014-Sep-17 15:33N 49°23' W 123°16'6 5.9
2014-Sep-17 14:33N 49°19' W 123°23'2019.8
2014-Sep-17 13:33N 49°14' W 123°52'4 4.0
2014-Sep-17 12:33N 49°12' W 123°57'0 0.0
2014-Sep-17 11:33N 49°12' W 123°57'0 0.0
2014-Sep-17 10:33N 49°12' W 123°57'0 0.0
2014-Sep-17 09:21N 49°12' W 123°57'0 0.0
2014-Sep-17 08:33N 49°12' W 123°57'0 0.0
2014-Sep-17 07:33N 49°12' W 123°57'0 0.0
2014-Sep-17 06:33N 49°12' W 123°57'1010.2
2014-Sep-17 05:33N 49°16' W 123°43'1919.0
2014-Sep-17 04:34N 49°23' W 123°16'9 8.9
2014-Sep-17 03:33N 49°18' W 123°28'2019.8
2014-Sep-17 02:33N 49°12' W 123°57'7 6.6
2014-Sep-17 01:34N 49°15' W 123°48'2019.5
2014-Sep-17 00:34N 49°21' W 123°19'2 2.2
2014-Sep-16 23:33N 49°20' W 123°21'2019.8
2014-Sep-16 22:33N 49°14' W 123°50'5 5.1
2014-Sep-16 21:33N 49°12' W 123°57'1918.8
2014-Sep-16 20:34N 49°18' W 123°31'1010.2
2014-Sep-16 19:33N 49°23' W 123°16'1211.9
2014-Sep-16 18:33N 49°17' W 123°32'1717.2
2014-Sep-16 17:33N 49°12' W 123°57'1010.1
2014-Sep-16 16:34N 49°16' W 123°43'1919.1
2014-Sep-16 15:34N 49°23' W 123°16'7 6.8
2014-Sep-16 14:33N 49°19' W 123°24'1919.4
2014-Sep-16 13:33N 49°14' W 123°53'4 3.4
2014-Sep-16 12:32N 49°12' W 123°57'0 0.0
2014-Sep-16 11:29N 49°12' W 123°57'0 0.0
2014-Sep-16 10:29N 49°12' W 123°57'0 0.0
2014-Sep-16 06:33N 49°12' W 123°57'1717.0
2014-Sep-16 05:33N 49°18' W 123°33'1211.7
2014-Sep-16 04:32N 49°23' W 123°16'1515.1
2014-Sep-16 03:33N 49°16' W 123°37'1414.2
2014-Sep-16 02:33N 49°12' W 123°57'1312.6
2014-Sep-16 01:33N 49°17' W 123°40'1616.1
2014-Sep-16 00:32N 49°23' W 123°16'8 7.7
2014-Sep-15 23:34N 49°18' W 123°26'2019.5
2014-Sep-15 22:33N 49°13' W 123°55'0 0.2
2014-Sep-15 21:33N 49°13' W 123°55'2019.6
2014-Sep-15 20:33N 49°19' W 123°26'7 7.3
2014-Sep-15 19:33N 49°23' W 123°16'1514.7
2014-Sep-15 18:34N 49°16' W 123°37'1414.2
2014-Sep-15 17:33N 49°12' W 123°57'1010.0
2014-Sep-15 16:33N 49°16' W 123°44'1919.1
2014-Sep-15 15:34N 49°23' W 123°17'6 6.1
2014-Sep-15 14:33N 49°19' W 123°23'2019.8
2014-Sep-15 13:33N 49°13' W 123°52'4 3.5
2014-Sep-15 12:32N 49°12' W 123°57'0 0.0
2014-Sep-15 11:32N 49°12' W 123°57'0 0.0
2014-Sep-15 10:32N 49°12' W 123°57'0 0.0
2014-Sep-15 09:32N 49°12' W 123°57'0 0.0
2014-Sep-15 05:11N 49°12' W 123°57'0 0.1
2014-Sep-15 03:34N 49°12' W 123°57'1919.1
2014-Sep-15 02:33N 49°18' W 123°30'10 9.7
2014-Sep-15 01:34N 49°23' W 123°16'9 8.5
2014-Sep-15 00:33N 49°26' W 123°28'8 8.5
2014-Sep-14 23:34N 49°23' W 123°16'7 6.9
2014-Sep-14 22:34N 49°18' W 123°24'2019.5
2014-Sep-14 21:34N 49°14' W 123°53'3 3.3
2014-Sep-14 20:34N 49°12' W 123°57'0 0.0
2014-Sep-14 19:33N 49°12' W 123°57'0 0.0
2014-Sep-14 18:21N 49°12' W 123°57'0 0.0
2014-Sep-14 17:33N 49°12' W 123°57'0 0.0
2014-Sep-14 15:27N 49°12' W 123°57'0 0.0
2014-Sep-14 14:09N 49°12' W 123°57'0 0.0
2014-Sep-14 13:33N 49°12' W 123°57'0 0.0
2014-Sep-14 12:33N 49°12' W 123°57'0 0.0
2014-Sep-14 11:33N 49°12' W 123°57'0 0.0
2014-Sep-14 10:33N 49°12' W 123°57'0 0.0
2014-Sep-14 09:33N 49°12' W 123°57'0 0.0
2014-Sep-14 08:33N 49°12' W 123°57'0 0.0
2014-Sep-14 07:33N 49°12' W 123°57'0 0.0
2014-Sep-14 06:33N 49°12' W 123°57'0 0.0
2014-Sep-14 05:33N 49°12' W 123°57'0 0.0
2014-Sep-14 02:33N 49°12' W 123°57'0 0.0
2014-Sep-14 01:21N 49°12' W 123°57'0 0.0
2014-Sep-13 21:09N 49°12' W 123°57'0 0.0
2014-Sep-13 17:33N 49°12' W 123°57'  
Track history (hours):
 
Tides and Currents Weather Stations Pressure Air Temp Water Temp Dewpoint Dewpoint Depression Visibility Wind Speed Wind Dir Waves Ship Positions

Queen Of Cowichan

Last reported at 2014-Sep-23 15:34 UTC. Time now 2014-Sep-23 16:29 UTC.
Position N 49°23' W 123°17'.

Length 139 m; draft 5.5 m.

Type: Passenger vessel. MMSI: 316001251.

Date/timePositionNaut miles runAvg speedWind from/ knotsBaromVisibWave heightAir tempDewpointWater temp
2014-Sep-23 15:34N 49°23' W 123°17'6 6.2
2014-Sep-23 14:33N 49°19' W 123°24'2019.8
2014-Sep-23 13:33N 49°13' W 123°53'3 2.7
2014-Sep-23 12:18N 49°12' W 123°57'0 0.0
2014-Sep-23 06:24N 49°12' W 123°57'1315.7
2014-Sep-23 05:34N 49°17' W 123°39'1614.4
2014-Sep-23 04:28N 49°23' W 123°16'1213.3
2014-Sep-23 03:33N 49°17' W 123°32'1715.1
2014-Sep-23 02:26N 49°12' W 123°57'1011.8
2014-Sep-23 01:34N 49°16' W 123°43'1918.8
2014-Sep-23 00:33N 49°23' W 123°16'6 6.1
2014-Sep-22 23:34N 49°19' W 123°23'2019.9
2014-Sep-22 22:34N 49°14' W 123°52'3 2.8
2014-Sep-22 21:34N 49°12' W 123°56'2019.9
2014-Sep-22 20:34N 49°19' W 123°27'8 8.1
2014-Sep-22 19:33N 49°23' W 123°16'1414.3
2014-Sep-22 18:34N 49°16' W 123°36'1514.7
2014-Sep-22 17:33N 49°12' W 123°57'1110.7
2014-Sep-22 16:33N 49°16' W 123°42'1818.3
2014-Sep-22 15:33N 49°23' W 123°16'7 6.6
2014-Sep-22 14:34N 49°19' W 123°24'2019.9
2014-Sep-22 13:34N 49°13' W 123°54'3 2.8
2014-Sep-22 12:31N 49°12' W 123°57'0 0.0
2014-Sep-22 11:28N 49°12' W 123°57'0 0.0
2014-Sep-22 10:25N 49°12' W 123°57'0 0.0
2014-Sep-22 09:31N 49°12' W 123°57'0 0.0
2014-Sep-22 08:28N 49°12' W 123°57'0 0.0
2014-Sep-22 07:28N 49°12' W 123°57'0 0.0
2014-Sep-22 05:22N 49°12' W 123°57'0 0.0
2014-Sep-22 04:16N 49°12' W 123°57'0 0.0
2014-Sep-22 03:33N 49°12' W 123°57'1716.9
2014-Sep-22 02:33N 49°18' W 123°33'1212.1
2014-Sep-22 01:33N 49°23' W 123°16'9 8.6
2014-Sep-22 00:33N 49°26' W 123°28'8 8.1
2014-Sep-21 23:34N 49°24' W 123°16'5 4.8
2014-Sep-21 22:33N 49°20' W 123°21'2019.8
2014-Sep-21 21:33N 49°14' W 123°50'6 1.3
2014-Sep-21 17:24N 49°12' W 123°57'0 0.0
2014-Sep-21 15:30N 49°12' W 123°57'0 0.0
2014-Sep-21 14:18N 49°12' W 123°57'0 0.0
2014-Sep-21 13:30N 49°12' W 123°57'0 0.0
2014-Sep-21 12:30N 49°12' W 123°57'0 0.0
2014-Sep-21 11:30N 49°12' W 123°57'0 0.0
2014-Sep-21 10:12N 49°12' W 123°57'0 0.0
2014-Sep-21 08:30N 49°12' W 123°57'0 0.0
2014-Sep-21 07:30N 49°12' W 123°57'0 0.0
2014-Sep-21 06:24N 49°12' W 123°57'0 0.0
2014-Sep-21 05:30N 49°12' W 123°57'0 0.0
2014-Sep-21 04:12N 49°12' W 123°57'0 0.0
2014-Sep-21 01:15N 49°12' W 123°57'0 0.0
2014-Sep-21 00:33N 49°12' W 123°57'0 0.0
2014-Sep-20 23:33N 49°12' W 123°57'0 0.0
2014-Sep-20 22:30N 49°12' W 123°57'0 0.0
2014-Sep-20 19:12N 49°12' W 123°57'0 0.0
2014-Sep-20 16:30N 49°12' W 123°57'0 0.0
2014-Sep-20 15:33N 49°12' W 123°57'0 0.0
2014-Sep-20 14:24N 49°12' W 123°57'0 0.0
2014-Sep-20 13:30N 49°12' W 123°57'0 0.0
2014-Sep-20 12:30N 49°12' W 123°57'0 0.0
2014-Sep-20 11:24N 49°12' W 123°57'0 0.0
2014-Sep-20 10:30N 49°12' W 123°57'0 0.0
2014-Sep-20 09:30N 49°12' W 123°57'0 0.0
2014-Sep-20 08:24N 49°12' W 123°57'0 0.0
2014-Sep-20 07:30N 49°12' W 123°57'0 0.0
2014-Sep-20 06:30N 49°12' W 123°57'0 0.0
2014-Sep-20 05:24N 49°12' W 123°57'0 0.0
2014-Sep-20 04:30N 49°12' W 123°57'0 0.0
2014-Sep-20 03:24N 49°12' W 123°57'0 0.0
2014-Sep-20 02:24N 49°12' W 123°57'0 0.0
2014-Sep-20 01:08N 49°12' W 123°57'915.6
2014-Sep-20 00:33N 49°16' W 123°45'1919.2
2014-Sep-19 23:33N 49°23' W 123°18'4 4.3
2014-Sep-19 22:33N 49°25' W 123°23'2 2.5
2014-Sep-19 21:33N 49°25' W 123°20'3 2.7
2014-Sep-19 20:33N 49°23' W 123°17'1818.3
2014-Sep-19 19:33N 49°15' W 123°43'1010.2
2014-Sep-19 18:33N 49°12' W 123°57'0 0.0
2014-Sep-19 17:27N 49°12' W 123°57'0 0.0
2014-Sep-19 16:21N 49°12' W 123°57'0 0.0
2014-Sep-19 15:24N 49°12' W 123°57'0 0.0
2014-Sep-19 13:30N 49°12' W 123°57'0 0.0
2014-Sep-19 12:27N 49°12' W 123°57'0 0.0
2014-Sep-19 11:21N 49°12' W 123°57'0 0.0
2014-Sep-19 10:33N 49°12' W 123°57'0 0.0
2014-Sep-19 09:24N 49°12' W 123°57'0 0.0
2014-Sep-19 08:33N 49°12' W 123°57'0 0.0
2014-Sep-19 07:33N 49°12' W 123°57'0 0.0
2014-Sep-19 06:09N 49°12' W 123°57'0 0.0
2014-Sep-19 05:33N 49°12' W 123°57'0 0.0
2014-Sep-19 04:33N 49°12' W 123°57'0 0.0
2014-Sep-19 03:15N 49°12' W 123°57'0 0.0
2014-Sep-19 00:33N 49°12' W 123°57'0 0.0
2014-Sep-18 23:10N 49°12' W 123°57'6 9.1
2014-Sep-18 22:34N 49°15' W 123°50'1716.5
2014-Sep-18 21:34N 49°19' W 123°26'7 7.0
2014-Sep-18 20:33N 49°23' W 123°16'1 1.0
2014-Sep-18 19:33N 49°23' W 123°17'1414.3
2014-Sep-18 18:33N 49°16' W 123°36'1514.6
2014-Sep-18 17:33N 49°12' W 123°57'1010.3
2014-Sep-18 16:34N 49°16' W 123°43'1918.8
2014-Sep-18 15:34N 49°23' W 123°16'6 6.4
2014-Sep-18 14:34N 49°19' W 123°23'2019.7
2014-Sep-18 13:34N 49°14' W 123°53'4 3.6
2014-Sep-18 12:33N 49°12' W 123°57'0 0.0
2014-Sep-18 11:32N 49°12' W 123°57'0 0.0
2014-Sep-18 07:32N 49°12' W 123°57'0 0.0
2014-Sep-18 06:32N 49°12' W 123°57'1010.3
2014-Sep-18 05:34N 49°16' W 123°44'1919.1
2014-Sep-18 04:34N 49°23' W 123°17'9 8.7
2014-Sep-18 03:33N 49°18' W 123°27'2019.8
2014-Sep-18 02:33N 49°12' W 123°56'6 6.1
2014-Sep-18 01:34N 49°15' W 123°48'1919.5
2014-Sep-18 00:34N 49°21' W 123°20'1 0.5
2014-Sep-17 23:33N 49°21' W 123°20'2019.6
2014-Sep-17 22:33N 49°15' W 123°49'6 6.4
2014-Sep-17 21:33N 49°12' W 123°57'1716.7
2014-Sep-17 20:34N 49°18' W 123°34'1212.2
2014-Sep-17 19:33N 49°23' W 123°16'1212.0
2014-Sep-17 18:33N 49°17' W 123°32'1717.0
2014-Sep-17 17:33N 49°12' W 123°57'1010.2
2014-Sep-17 16:34N 49°16' W 123°43'1918.9
2014-Sep-17 15:33N 49°23' W 123°16'6 5.9
2014-Sep-17 14:33N 49°19' W 123°23'2019.8
2014-Sep-17 13:33N 49°14' W 123°52'4 4.0
2014-Sep-17 12:33N 49°12' W 123°57'0 0.0
2014-Sep-17 11:33N 49°12' W 123°57'0 0.0
2014-Sep-17 10:33N 49°12' W 123°57'0 0.0
2014-Sep-17 09:21N 49°12' W 123°57'0 0.0
2014-Sep-17 08:33N 49°12' W 123°57'0 0.0
2014-Sep-17 07:33N 49°12' W 123°57'0 0.0
2014-Sep-17 06:33N 49°12' W 123°57'1010.2
2014-Sep-17 05:33N 49°16' W 123°43'1919.0
2014-Sep-17 04:34N 49°23' W 123°16'9 8.9
2014-Sep-17 03:33N 49°18' W 123°28'2019.8
2014-Sep-17 02:33N 49°12' W 123°57'7 6.6
2014-Sep-17 01:34N 49°15' W 123°48'2019.5
2014-Sep-17 00:34N 49°21' W 123°19'2 2.2
2014-Sep-16 23:33N 49°20' W 123°21'2019.8
2014-Sep-16 22:33N 49°14' W 123°50'5 5.1
2014-Sep-16 21:33N 49°12' W 123°57'1918.8
2014-Sep-16 20:34N 49°18' W 123°31'1010.2
2014-Sep-16 19:33N 49°23' W 123°16'1211.9
2014-Sep-16 18:33N 49°17' W 123°32'1717.2
2014-Sep-16 17:33N 49°12' W 123°57'1010.1
2014-Sep-16 16:34N 49°16' W 123°43'1919.1
2014-Sep-16 15:34N 49°23' W 123°16'7 6.8
2014-Sep-16 14:33N 49°19' W 123°24'1919.4
2014-Sep-16 13:33N 49°14' W 123°53'4 3.4
2014-Sep-16 12:32N 49°12' W 123°57'0 0.0
2014-Sep-16 11:29N 49°12' W 123°57'0 0.0
2014-Sep-16 10:29N 49°12' W 123°57'0 0.0
2014-Sep-16 06:33N 49°12' W 123°57'1717.0
2014-Sep-16 05:33N 49°18' W 123°33'1211.7
2014-Sep-16 04:32N 49°23' W 123°16'1515.1
2014-Sep-16 03:33N 49°16' W 123°37'1414.2
2014-Sep-16 02:33N 49°12' W 123°57'1312.6
2014-Sep-16 01:33N 49°17' W 123°40'1616.1
2014-Sep-16 00:32N 49°23' W 123°16'8 7.7
2014-Sep-15 23:34N 49°18' W 123°26'2019.5
2014-Sep-15 22:33N 49°13' W 123°55'0 0.2
2014-Sep-15 21:33N 49°13' W 123°55'2019.6
2014-Sep-15 20:33N 49°19' W 123°26'7 7.3
2014-Sep-15 19:33N 49°23' W 123°16'1514.7
2014-Sep-15 18:34N 49°16' W 123°37'1414.2
2014-Sep-15 17:33N 49°12' W 123°57'1010.0
2014-Sep-15 16:33N 49°16' W 123°44'1919.1
2014-Sep-15 15:34N 49°23' W 123°17'6 6.1
2014-Sep-15 14:33N 49°19' W 123°23'2019.8
2014-Sep-15 13:33N 49°13' W 123°52'4 3.5
2014-Sep-15 12:32N 49°12' W 123°57'0 0.0
2014-Sep-15 11:32N 49°12' W 123°57'0 0.0
2014-Sep-15 10:32N 49°12' W 123°57'0 0.0
2014-Sep-15 09:32N 49°12' W 123°57'0 0.0
2014-Sep-15 05:11N 49°12' W 123°57'0 0.1
2014-Sep-15 03:34N 49°12' W 123°57'1919.1
2014-Sep-15 02:33N 49°18' W 123°30'10 9.7
2014-Sep-15 01:34N 49°23' W 123°16'9 8.5
2014-Sep-15 00:33N 49°26' W 123°28'8 8.5
2014-Sep-14 23:34N 49°23' W 123°16'7 6.9
2014-Sep-14 22:34N 49°18' W 123°24'2019.5
2014-Sep-14 21:34N 49°14' W 123°53'3 3.3
2014-Sep-14 20:34N 49°12' W 123°57'0 0.0
2014-Sep-14 19:33N 49°12' W 123°57'0 0.0
2014-Sep-14 18:21N 49°12' W 123°57'0 0.0
2014-Sep-14 17:33N 49°12' W 123°57'0 0.0
2014-Sep-14 15:27N 49°12' W 123°57'0 0.0
2014-Sep-14 14:09N 49°12' W 123°57'0 0.0
2014-Sep-14 13:33N 49°12' W 123°57'0 0.0
2014-Sep-14 12:33N 49°12' W 123°57'0 0.0
2014-Sep-14 11:33N 49°12' W 123°57'0 0.0
2014-Sep-14 10:33N 49°12' W 123°57'0 0.0
2014-Sep-14 09:33N 49°12' W 123°57'0 0.0
2014-Sep-14 08:33N 49°12' W 123°57'0 0.0
2014-Sep-14 07:33N 49°12' W 123°57'0 0.0
2014-Sep-14 06:33N 49°12' W 123°57'0 0.0
2014-Sep-14 05:33N 49°12' W 123°57'0 0.0
2014-Sep-14 02:33N 49°12' W 123°57'0 0.0
2014-Sep-14 01:21N 49°12' W 123°57'0 0.0
2014-Sep-13 21:09N 49°12' W 123°57'0 0.0
2014-Sep-13 17:33N 49°12' W 123°57'  

Dump ship's entire track history